Hartford, Connecticut
Traffic Map
Current Weather Conditions
Hartford, Connecticut
Few Clouds
Few Clouds
16°
Feels Like: 16°
Wind Chill: 16° Ceiling: Unl
Heat Index: 16° Visibility: 10mi
Dew Point: Wind: 10mph
Humidity: 56% Direction: 340° (NNW)
Pressure: 29.62in Gusts: 0mph
Raw Report DataKHFD 211853Z 34009KT 10SM FEW065 16/07 A2962 RMK AO2 SLP029 T01610072
Traffic Incident Summary
Active as of:
Severity:
Category:
InformationThere was an issue retrieving the traffic information for this location. Please try a different location or try again shortly.
Advertisements
Track Severe Weather on mobile